Time;durP1;ratioP1;P1;durP2;ratioP2;P2;SDS_P1;SDS_P2;PMS_P1;PMS_P2;Temp;Humidity;BMP_temperature;BMP_pressure;BME280_temperature;BME280_humidity;BME280_pressure;Samples;Min_cycle;Max_cycle;Signal;HPM_P1;HPM_P2
2023/12/15 00:01:53;;;;;;;5.07;2.92;;;5.60;99.90;;;;;;5015868;28;20497;-80
2023/12/15 00:04:19;;;;;;;6.53;3.05;;;5.60;99.90;;;;;;5020614;28;20040;-79
2023/12/15 00:06:45;;;;;;;5.53;2.80;;;5.60;99.90;;;;;;5017440;28;20018;-80
2023/12/15 00:09:10;;;;;;;5.90;2.83;;;5.60;99.90;;;;;;5022595;28;20021;-79
2023/12/15 00:11:36;;;;;;;5.97;2.92;;;5.60;99.90;;;;;;5014941;28;20030;-80
2023/12/15 00:14:01;;;;;;;6.47;3.13;;;5.60;99.90;;;;;;5014490;28;20057;-80
2023/12/15 00:16:27;;;;;;;5.03;3.03;;;5.60;99.90;;;;;;5018501;28;20034;-80
2023/12/15 00:18:53;;;;;;;5.13;2.72;;;5.50;99.90;;;;;;5022382;28;20022;-80
2023/12/15 00:21:18;;;;;;;6.15;2.90;;;5.50;99.90;;;;;;5014462;28;20037;-81
2023/12/15 00:23:44;;;;;;;5.97;2.80;;;5.50;99.90;;;;;;5013408;28;20033;-81
2023/12/15 00:26:10;;;;;;;4.43;2.38;;;5.50;99.90;;;;;;5001120;28;20034;-81
2023/12/15 00:28:35;;;;;;;5.90;2.95;;;5.50;99.90;;;;;;5018023;28;20097;-80
2023/12/15 00:31:01;;;;;;;5.70;3.45;;;5.50;99.90;;;;;;5015597;28;20057;-80
2023/12/15 00:33:26;;;;;;;5.60;3.17;;;5.50;99.90;;;;;;5013688;28;20092;-81
2023/12/15 00:35:52;;;;;;;5.38;3.40;;;5.50;99.90;;;;;;5017875;28;20037;-80
2023/12/15 00:38:18;;;;;;;5.72;3.10;;;5.50;99.90;;;;;;5020622;28;20139;-81
2023/12/15 00:40:43;;;;;;;5.88;3.58;;;5.50;99.90;;;;;;5016468;28;20038;-82
2023/12/15 00:43:09;;;;;;;7.13;3.70;;;5.50;99.90;;;;;;5018947;28;20411;-81
2023/12/15 00:45:34;;;;;;;5.47;3.13;;;5.50;99.90;;;;;;5019963;28;20029;-81
2023/12/15 00:48:00;;;;;;;6.38;3.80;;;5.50;99.90;;;;;;5024180;28;21600;-80
2023/12/15 00:50:28;;;;;;;6.53;2.83;;;5.50;99.90;;;;;;5022111;28;20029;-81
2023/12/15 00:52:54;;;;;;;5.30;2.92;;;5.50;99.90;;;;;;5007649;28;20026;-81
2023/12/15 00:55:20;;;;;;;6.13;3.40;;;5.50;99.90;;;;;;5024565;28;20109;-81
2023/12/15 00:57:45;;;;;;;4.95;3.65;;;5.50;99.90;;;;;;5025405;28;20049;-80
2023/12/15 01:00:12;;;;;;;7.55;3.75;;;5.50;99.90;;;;;;5018770;28;20021;-80
2023/12/15 01:02:37;;;;;;;5.75;3.03;;;5.50;99.90;;;;;;5020622;28;20046;-81
2023/12/15 01:05:03;;;;;;;5.85;3.17;;;5.50;99.90;;;;;;5020562;28;20041;-80
2023/12/15 01:07:31;;;;;;;5.63;3.00;;;5.50;99.90;;;;;;5023668;28;20021;-80
2023/12/15 01:09:57;;;;;;;6.10;3.08;;;5.50;99.90;;;;;;5018242;28;20108;-81
2023/12/15 01:12:22;;;;;;;5.85;3.35;;;5.50;99.90;;;;;;5012889;28;20038;-80
2023/12/15 01:14:48;;;;;;;4.85;2.95;;;5.50;99.90;;;;;;5010347;28;20028;-80
2023/12/15 01:17:13;;;;;;;5.22;3.00;;;5.50;99.90;;;;;;5021842;28;20049;-80
2023/12/15 01:19:39;;;;;;;5.63;3.25;;;5.50;99.90;;;;;;5021677;28;20033;-81
2023/12/15 01:22:04;;;;;;;6.57;4.07;;;5.50;99.90;;;;;;5019725;28;20049;-81
2023/12/15 01:24:30;;;;;;;5.40;2.75;;;5.50;99.90;;;;;;5017822;28;20025;-80
2023/12/15 01:26:55;;;;;;;6.30;3.25;;;5.50;99.90;;;;;;5024713;28;20053;-80
2023/12/15 01:29:21;;;;;;;5.25;3.10;;;5.50;99.90;;;;;;5023170;28;20034;-80
2023/12/15 01:31:47;;;;;;;5.93;3.22;;;5.50;99.90;;;;;;5027049;28;20022;-80
2023/12/15 01:34:12;;;;;;;4.80;3.08;;;5.50;99.90;;;;;;5033442;28;20110;-79
2023/12/15 01:36:38;;;;;;;5.88;3.55;;;5.50;99.90;;;;;;5032551;28;20010;-79
2023/12/15 01:39:03;;;;;;;5.60;3.28;;;5.50;99.90;;;;;;5041332;28;20052;-80
2023/12/15 01:41:31;;;;;;;5.57;3.60;;;5.50;99.90;;;;;;5035719;28;20086;-80
2023/12/15 01:43:57;;;;;;;4.50;2.80;;;5.50;99.90;;;;;;5034959;28;20078;-79
2023/12/15 01:46:22;;;;;;;4.55;2.72;;;5.40;99.90;;;;;;5022436;28;20030;-80
2023/12/15 01:48:48;;;;;;;6.25;3.30;;;5.40;99.90;;;;;;5018142;28;20053;-81
2023/12/15 01:51:14;;;;;;;5.18;3.05;;;5.40;99.90;;;;;;5020436;28;20041;-80
2023/12/15 01:53:40;;;;;;;4.75;2.60;;;5.40;99.90;;;;;;5020779;28;20030;-80
2023/12/15 01:56:09;;;;;;;5.47;3.10;;;5.40;99.90;;;;;;5019428;28;20085;-80
2023/12/15 01:58:35;;;;;;;5.57;3.40;;;5.40;99.90;;;;;;5022798;28;20033;-81
2023/12/15 02:01:00;;;;;;;6.10;3.30;;;5.40;99.90;;;;;;5025933;28;21248;-81
2023/12/15 02:03:26;;;;;;;6.93;4.00;;;5.30;99.90;;;;;;5020604;28;20421;-80
2023/12/15 02:05:51;;;;;;;4.88;3.00;;;5.40;99.90;;;;;;5015993;28;20026;-80
2023/12/15 02:08:17;;;;;;;5.43;3.20;;;5.40;99.90;;;;;;5022146;28;20026;-80
2023/12/15 02:10:43;;;;;;;5.07;3.40;;;5.40;99.90;;;;;;5020345;28;20049;-80
2023/12/15 02:13:08;;;;;;;8.15;3.78;;;5.30;99.90;;;;;;5017995;28;20084;-81
2023/12/15 02:15:34;;;;;;;8.27;4.15;;;5.40;99.90;;;;;;5035886;28;20041;-81
2023/12/15 02:17:59;;;;;;;6.18;3.25;;;5.40;99.90;;;;;;5023581;28;20108;-81
2023/12/15 02:20:26;;;;;;;5.93;3.47;;;5.40;99.90;;;;;;5020077;28;20446;-80
2023/12/15 02:22:52;;;;;;;6.68;4.15;;;5.40;99.90;;;;;;5016541;28;20028;-80
2023/12/15 02:25:18;;;;;;;6.88;4.20;;;5.40;99.90;;;;;;5016498;28;20029;-81
2023/12/15 02:27:43;;;;;;;8.50;3.42;;;5.40;99.90;;;;;;5015340;28;20064;-80
2023/12/15 02:30:09;;;;;;;7.68;4.38;;;5.40;99.90;;;;;;5014091;28;20030;-80
2023/12/15 02:32:35;;;;;;;7.43;4.30;;;5.40;99.90;;;;;;5014662;28;20422;-79
2023/12/15 02:35:00;;;;;;;6.72;3.88;;;5.40;99.90;;;;;;5017010;28;20022;-80
2023/12/15 02:37:27;;;;;;;5.75;3.42;;;5.40;99.90;;;;;;5012293;28;20026;-80
2023/12/15 02:39:53;;;;;;;5.28;3.60;;;5.40;99.90;;;;;;5018256;28;20045;-80
2023/12/15 02:42:18;;;;;;;5.85;4.00;;;5.40;99.90;;;;;;5023962;28;20033;-81
2023/12/15 02:44:45;;;;;;;6.13;3.63;;;5.40;99.90;;;;;;5020819;28;20021;-80
2023/12/15 02:47:10;;;;;;;6.70;3.53;;;5.40;99.90;;;;;;5022200;28;20049;-81
2023/12/15 02:49:39;;;;;;;7.68;4.18;;;5.40;99.90;;;;;;5025125;28;20029;-80
2023/12/15 02:52:06;;;;;;;6.80;3.97;;;5.40;99.90;;;;;;5023048;28;20062;-81
2023/12/15 02:54:32;;;;;;;7.32;4.05;;;5.40;99.90;;;;;;5022654;28;20075;-81
2023/12/15 02:56:57;;;;;;;8.23;4.50;;;5.40;99.90;;;;;;5018107;28;20093;-81
2023/12/15 02:59:23;;;;;;;5.97;3.75;;;5.50;99.90;;;;;;5025525;28;20085;-81
2023/12/15 03:01:48;;;;;;;5.35;3.70;;;5.40;99.90;;;;;;5017763;28;20109;-82
2023/12/15 03:04:14;;;;;;;6.30;4.03;;;5.50;99.90;;;;;;5027067;28;20445;-81
2023/12/15 03:06:40;;;;;;;6.78;4.20;;;5.40;99.90;;;;;;5022665;28;20022;-81
2023/12/15 03:09:05;;;;;;;6.55;3.85;;;5.40;99.90;;;;;;5029051;28;20029;-81
2023/12/15 03:11:31;;;;;;;5.82;3.60;;;5.40;99.90;;;;;;5024702;28;20056;-82
2023/12/15 03:13:56;;;;;;;6.28;3.80;;;5.30;99.90;;;;;;5025118;28;20041;-81
2023/12/15 03:16:25;;;;;;;6.47;4.30;;;5.30;99.90;;;;;;5023462;28;20045;-81
2023/12/15 03:18:51;;;;;;;5.80;4.15;;;5.30;99.90;;;;;;5027104;28;20022;-81
2023/12/15 03:21:17;;;;;;;5.68;3.97;;;5.30;99.90;;;;;;5021701;28;20086;-81
2023/12/15 03:23:42;;;;;;;7.85;4.80;;;5.30;99.90;;;;;;5023322;28;20094;-82
2023/12/15 03:26:08;;;;;;;8.65;4.47;;;5.30;99.90;;;;;;5024183;28;20064;-81
2023/12/15 03:28:33;;;;;;;11.52;3.97;;;5.30;99.90;;;;;;5032419;28;20037;-82
2023/12/15 03:30:59;;;;;;;6.40;4.32;;;5.30;99.90;;;;;;5024696;28;20069;-82
2023/12/15 03:33:27;;;;;;;6.20;3.72;;;5.30;99.90;;;;;;5024247;28;20089;-82
2023/12/15 03:35:53;;;;;;;7.47;4.22;;;5.30;99.90;;;;;;5023814;28;20037;-81
2023/12/15 03:38:19;;;;;;;6.82;4.20;;;5.30;99.90;;;;;;5028273;28;20037;-82
2023/12/15 03:40:45;;;;;;;7.80;4.00;;;5.30;99.90;;;;;;5026038;28;20030;-82
2023/12/15 03:43:11;;;;;;;7.88;4.45;;;5.30;99.90;;;;;;5024133;28;20037;-82
2023/12/15 03:45:37;;;;;;;8.07;4.63;;;5.40;99.90;;;;;;5026470;28;20462;-82
2023/12/15 03:48:02;;;;;;;8.15;4.57;;;5.40;99.90;;;;;;5031670;28;20026;-82
2023/12/15 03:50:28;;;;;;;7.95;4.85;;;5.40;99.90;;;;;;5030844;28;20033;-81
2023/12/15 03:52:54;;;;;;;8.25;4.57;;;5.30;99.90;;;;;;5018633;28;20026;-82
2023/12/15 03:55:19;;;;;;;8.80;4.68;;;5.30;99.90;;;;;;5024391;28;20033;-81
2023/12/15 03:57:45;;;;;;;10.60;5.03;;;5.40;99.90;;;;;;5029721;28;20085;-81
2023/12/15 04:00:11;;;;;;;7.05;4.50;;;5.40;99.90;;;;;;5019854;28;20056;-81
2023/12/15 04:02:36;;;;;;;8.45;4.70;;;5.40;99.90;;;;;;5031178;28;20034;-81
2023/12/15 04:05:02;;;;;;;9.05;5.03;;;5.40;99.90;;;;;;5021460;28;20026;-81
2023/12/15 04:07:27;;;;;;;7.32;4.18;;;5.40;99.90;;;;;;5025310;28;20025;-81
2023/12/15 04:09:53;;;;;;;7.05;3.95;;;5.40;99.90;;;;;;5031066;28;20036;-80
2023/12/15 04:12:19;;;;;;;7.65;4.30;;;5.50;99.90;;;;;;5038075;28;20041;-80
2023/12/15 04:14:44;;;;;;;9.52;5.28;;;5.50;99.90;;;;;;5037016;28;20052;-80
2023/12/15 04:17:10;;;;;;;9.00;4.18;;;5.50;99.90;;;;;;5035838;28;20028;-80
2023/12/15 04:19:36;;;;;;;6.57;4.03;;;5.50;99.90;;;;;;5039417;28;20061;-80
2023/12/15 04:22:01;;;;;;;6.22;3.72;;;5.40;99.90;;;;;;5041942;28;20066;-81
2023/12/15 04:24:27;;;;;;;7.30;3.60;;;5.40;99.90;;;;;;5036368;28;20033;-81
2023/12/15 04:26:53;;;;;;;6.90;3.50;;;5.50;99.90;;;;;;5034376;28;20097;-80
2023/12/15 04:29:20;;;;;;;6.00;3.33;;;5.50;99.90;;;;;;5027150;28;20073;-81
2023/12/15 04:31:45;;;;;;;5.95;3.45;;;5.50;99.90;;;;;;5024647;28;20030;-81
2023/12/15 04:34:11;;;;;;;5.50;2.80;;;5.50;99.90;;;;;;5036075;28;20125;-80
2023/12/15 04:36:38;;;;;;;6.10;3.22;;;5.50;99.90;;;;;;5036663;28;20037;-80
2023/12/15 04:39:04;;;;;;;5.95;3.38;;;5.40;99.90;;;;;;5037023;28;20053;-79
2023/12/15 04:41:29;;;;;;;5.50;3.10;;;5.40;99.90;;;;;;5042458;28;20033;-81
2023/12/15 04:43:55;;;;;;;8.32;4.03;;;5.40;99.90;;;;;;5041371;28;20128;-81
2023/12/15 04:46:28;;;;;;;6.18;3.63;;;5.40;99.90;;;;;;5036345;28;20018;-81
2023/12/15 04:48:56;;;;;;;8.45;4.50;;;5.40;99.90;;;;;;5040432;28;20080;-81
2023/12/15 04:51:22;;;;;;;5.72;3.83;;;5.40;99.90;;;;;;5037989;28;20042;-81
2023/12/15 04:53:49;;;;;;;6.00;3.58;;;5.40;99.90;;;;;;5036104;28;20054;-80
2023/12/15 04:56:15;;;;;;;6.45;3.10;;;5.30;99.90;;;;;;5035000;28;20031;-80
2023/12/15 04:58:40;;;;;;;6.03;4.22;;;5.30;99.90;;;;;;5026072;28;20060;-79
2023/12/15 05:01:10;;;;;;;7.70;3.83;;;5.30;99.90;;;;;;5018761;28;20061;-81
2023/12/15 05:03:37;;;;;;;5.72;3.53;;;5.30;99.90;;;;;;5018744;28;20029;-80
2023/12/15 05:06:02;;;;;;;5.95;3.58;;;5.30;99.90;;;;;;5016269;28;20026;-80
2023/12/15 05:08:28;;;;;;;5.88;3.58;;;5.30;99.90;;;;;;5022862;28;20105;-81
2023/12/15 05:10:54;;;;;;;6.85;3.45;;;5.30;99.90;;;;;;5017333;28;20089;-80
2023/12/15 05:13:19;;;;;;;6.03;3.15;;;5.30;99.90;;;;;;5023742;28;20041;-81
2023/12/15 05:15:45;;;;;;;6.82;3.50;;;5.30;99.90;;;;;;5027349;28;20017;-80
2023/12/15 05:18:10;;;;;;;6.40;3.85;;;5.30;99.90;;;;;;5025208;28;20033;-81
2023/12/15 05:20:37;;;;;;;5.03;3.25;;;5.30;99.90;;;;;;5019805;28;20033;-81
2023/12/15 05:23:05;;;;;;;6.28;3.90;;;5.30;99.90;;;;;;5023282;28;20037;-80
2023/12/15 05:25:31;;;;;;;5.57;3.80;;;5.30;99.90;;;;;;5028880;28;20021;-80
2023/12/15 05:27:57;;;;;;;7.95;4.55;;;5.30;99.90;;;;;;5025337;28;20521;-80
2023/12/15 05:30:23;;;;;;;5.05;3.08;;;5.30;99.90;;;;;;5003529;28;20045;-80
2023/12/15 05:32:48;;;;;;;5.35;3.33;;;5.30;99.90;;;;;;5022853;28;20308;-80
2023/12/15 05:35:14;;;;;;;6.55;3.80;;;5.30;99.90;;;;;;5022848;28;20082;-80
2023/12/15 05:37:40;;;;;;;6.65;3.35;;;5.30;99.90;;;;;;5023129;28;20023;-81
2023/12/15 05:40:09;;;;;;;5.20;3.17;;;5.30;99.90;;;;;;5020164;28;20089;-81
2023/12/15 05:42:35;;;;;;;8.77;4.30;;;5.30;99.90;;;;;;5029098;28;20026;-80
2023/12/15 05:45:01;;;;;;;8.25;4.40;;;5.30;99.90;;;;;;5023581;28;20033;-83
2023/12/15 05:47:27;;;;;;;9.50;4.65;;;5.30;99.90;;;;;;5013220;28;20030;-82
2023/12/15 05:49:53;;;;;;;15.38;5.63;;;5.30;99.90;;;;;;5027263;28;21518;-81
2023/12/15 05:52:19;;;;;;;12.60;6.38;;;5.30;99.90;;;;;;5028383;28;20026;-81
2023/12/15 05:54:45;;;;;;;12.68;5.75;;;5.30;99.90;;;;;;5020154;28;20046;-83
2023/12/15 05:57:10;;;;;;;12.90;6.53;;;5.30;99.90;;;;;;5027370;28;20383;-81
2023/12/15 05:59:36;;;;;;;12.07;6.10;;;5.30;99.90;;;;;;5004734;28;20032;-81
2023/12/15 06:02:02;;;;;;;8.25;4.93;;;5.30;99.90;;;;;;5014884;28;20030;-79
2023/12/15 06:04:27;;;;;;;10.18;4.57;;;5.30;99.90;;;;;;5016749;28;20034;-80
2023/12/15 06:06:53;;;;;;;10.15;4.47;;;5.30;99.90;;;;;;5010828;28;20022;-81
2023/12/15 06:09:19;;;;;;;7.95;4.72;;;5.30;99.90;;;;;;5017312;28;20028;-81
2023/12/15 06:11:45;;;;;;;7.72;4.82;;;5.30;99.90;;;;;;5009974;28;20160;-81
2023/12/15 06:14:11;;;;;;;5.85;3.75;;;5.30;99.90;;;;;;5025230;28;20426;-83
2023/12/15 06:16:37;;;;;;;7.68;4.45;;;5.20;99.90;;;;;;5026001;28;20663;-81
2023/12/15 06:19:02;;;;;;;6.55;3.63;;;5.30;99.90;;;;;;5020844;28;20198;-82
2023/12/15 06:21:28;;;;;;;7.50;4.03;;;5.30;99.90;;;;;;5033546;28;20439;-81
2023/12/15 06:23:54;;;;;;;6.70;3.65;;;5.30;99.90;;;;;;5022825;28;20057;-81
2023/12/15 06:26:22;;;;;;;7.32;4.55;;;5.30;99.90;;;;;;5025902;28;20033;-81
2023/12/15 06:28:48;;;;;;;6.10;3.85;;;5.30;99.90;;;;;;5019645;28;20057;-81
2023/12/15 06:31:14;;;;;;;7.40;3.70;;;5.30;99.90;;;;;;5023857;28;20060;-80
2023/12/15 06:33:39;;;;;;;7.72;3.92;;;5.30;99.90;;;;;;5024340;28;20094;-81
2023/12/15 06:36:08;;;;;;;7.75;4.43;;;5.30;99.90;;;;;;5024604;28;20062;-82
2023/12/15 06:38:35;;;;;;;9.05;4.60;;;5.30;99.90;;;;;;5019865;28;20037;-81
2023/12/15 06:41:01;;;;;;;10.68;6.05;;;5.30;99.90;;;;;;5006557;28;20454;-81
2023/12/15 06:43:27;;;;;;;9.63;4.47;;;5.30;99.90;;;;;;5023848;28;20026;-80
2023/12/15 06:45:53;;;;;;;10.63;5.38;;;5.30;99.90;;;;;;5020350;28;20100;-81
2023/12/15 06:48:18;;;;;;;9.35;5.30;;;5.30;99.90;;;;;;5010268;28;20029;-81
2023/12/15 06:50:44;;;;;;;10.25;5.10;;;5.30;99.90;;;;;;5023100;28;20026;-81
2023/12/15 06:53:10;;;;;;;8.43;4.78;;;5.30;99.90;;;;;;5023780;28;20030;-81
2023/12/15 06:55:35;;;;;;;10.23;5.60;;;5.30;99.90;;;;;;5005465;28;20034;-81
2023/12/15 06:58:01;;;;;;;11.82;5.45;;;5.30;99.90;;;;;;5033980;28;20384;-81
2023/12/15 07:00:27;;;;;;;10.25;5.45;;;5.30;99.90;;;;;;5009542;28;20048;-80
2023/12/15 07:02:52;;;;;;;8.20;5.50;;;5.30;99.90;;;;;;5021039;28;20029;-79
2023/12/15 07:05:18;;;;;;;10.13;6.00;;;5.30;99.90;;;;;;5018448;28;20109;-81
2023/12/15 07:07:43;;;;;;;10.10;5.70;;;5.30;99.90;;;;;;5022048;28;20057;-81
2023/12/15 07:10:09;;;;;;;11.30;5.63;;;5.30;99.90;;;;;;5010635;28;20026;-80
2023/12/15 07:12:34;;;;;;;12.95;5.85;;;5.30;99.90;;;;;;5017344;28;20041;-81
2023/12/15 07:15:00;;;;;;;11.25;5.63;;;5.40;99.90;;;;;;5022087;28;20018;-81
2023/12/15 07:17:26;;;;;;;10.57;5.38;;;5.40;99.90;;;;;;5004812;28;20037;-82
2023/12/15 07:19:51;;;;;;;11.10;6.20;;;5.40;99.90;;;;;;5018691;28;20030;-82
2023/12/15 07:22:17;;;;;;;9.38;5.97;;;5.30;99.90;;;;;;5020118;28;20021;-82
2023/12/15 07:24:42;;;;;;;10.85;5.68;;;5.40;99.90;;;;;;5016517;28;20029;-81
2023/12/15 07:27:08;;;;;;;11.25;6.38;;;5.30;99.90;;;;;;5013859;28;20104;-81
2023/12/15 07:29:34;;;;;;;12.75;6.07;;;5.40;99.90;;;;;;5025417;28;20030;-81
2023/12/15 07:32:00;;;;;;;10.88;5.38;;;5.40;99.90;;;;;;5025840;28;20590;-82
2023/12/15 07:34:28;;;;;;;9.18;6.10;;;5.30;99.90;;;;;;5001614;28;20430;-81
2023/12/15 07:36:55;;;;;;;12.57;5.85;;;5.30;99.90;;;;;;5027210;28;20036;-80
2023/12/15 07:39:21;;;;;;;9.45;5.95;;;5.30;99.90;;;;;;4993086;28;20030;-81
2023/12/15 07:41:48;;;;;;;9.00;5.72;;;5.40;99.90;;;;;;4989915;28;20038;-81
2023/12/15 07:44:14;;;;;;;10.80;6.20;;;5.40;99.90;;;;;;5018718;28;20026;-81
2023/12/15 07:46:41;;;;;;;11.38;6.53;;;5.40;99.90;;;;;;5015789;28;20021;-81
2023/12/15 07:49:07;;;;;;;10.68;6.03;;;5.40;99.90;;;;;;5008775;28;20037;-80
2023/12/15 07:51:32;;;;;;;11.13;6.80;;;5.40;99.90;;;;;;5024952;28;20098;-80
2023/12/15 07:53:58;;;;;;;11.25;6.50;;;5.40;99.90;;;;;;5009450;28;20025;-81
2023/12/15 07:56:26;;;;;;;9.95;6.15;;;5.40;99.90;;;;;;5043691;28;20037;-82
2023/12/15 07:58:52;;;;;;;13.13;7.22;;;5.40;99.90;;;;;;5026883;28;20022;-81
2023/12/15 08:01:19;;;;;;;13.57;6.75;;;5.40;99.90;;;;;;5021834;28;20360;-82
2023/12/15 08:03:45;;;;;;;10.05;6.18;;;5.40;99.90;;;;;;5023455;28;20022;-82
2023/12/15 08:06:13;;;;;;;12.32;6.82;;;5.40;99.90;;;;;;5021541;28;20068;-81
2023/12/15 08:08:39;;;;;;;11.95;6.35;;;5.40;99.90;;;;;;5025639;28;20074;-81
2023/12/15 08:11:05;;;;;;;10.88;6.50;;;5.40;99.90;;;;;;5024079;28;20355;-81
2023/12/15 08:13:31;;;;;;;14.35;7.82;;;5.40;99.90;;;;;;5024738;28;20149;-82
2023/12/15 08:15:58;;;;;;;11.20;6.60;;;5.40;99.90;;;;;;5022699;28;20120;-82
2023/12/15 08:18:23;;;;;;;11.73;6.63;;;5.40;99.90;;;;;;5029529;28;20038;-81
2023/12/15 08:20:50;;;;;;;11.38;7.00;;;5.50;99.90;;;;;;5007036;28;20415;-80
2023/12/15 08:23:15;;;;;;;12.52;6.68;;;5.50;99.90;;;;;;5011065;28;20052;-81
2023/12/15 08:25:41;;;;;;;11.05;6.68;;;5.50;99.90;;;;;;5026855;28;20034;-81
2023/12/15 08:28:09;;;;;;;13.48;7.35;;;5.50;99.90;;;;;;5028318;28;20052;-81
2023/12/15 08:30:35;;;;;;;12.80;6.97;;;5.50;99.90;;;;;;5025766;28;20036;-81
2023/12/15 08:33:01;;;;;;;9.88;6.30;;;5.60;99.90;;;;;;5030616;28;20033;-81
2023/12/15 08:35:27;;;;;;;11.70;6.97;;;5.60;99.90;;;;;;5020786;28;20025;-80
2023/12/15 08:37:54;;;;;;;11.07;7.07;;;5.60;99.90;;;;;;5028681;28;20050;-80
2023/12/15 08:40:20;;;;;;;12.82;6.88;;;5.70;99.90;;;;;;5024922;28;20053;-81
2023/12/15 08:42:46;;;;;;;13.82;7.55;;;5.70;99.90;;;;;;5028006;28;20420;-81
2023/12/15 08:45:11;;;;;;;13.50;7.57;;;5.70;99.90;;;;;;5030027;28;20022;-80
2023/12/15 08:47:37;;;;;;;13.45;7.20;;;5.80;99.90;;;;;;5025723;28;20082;-80
2023/12/15 08:50:04;;;;;;;11.85;6.57;;;5.80;99.90;;;;;;5026608;28;20037;-80
2023/12/15 08:52:29;;;;;;;10.57;6.70;;;5.90;99.90;;;;;;5031626;28;20021;-81
2023/12/15 08:54:55;;;;;;;14.30;7.68;;;5.80;99.90;;;;;;5024200;28;20123;-81
2023/12/15 08:57:21;;;;;;;10.75;6.38;;;5.90;99.90;;;;;;5022007;28;20078;-80
2023/12/15 08:59:47;;;;;;;11.30;6.03;;;6.00;99.90;;;;;;5017591;28;20037;-80
2023/12/15 09:02:13;;;;;;;13.35;7.10;;;6.00;99.90;;;;;;5018607;28;20029;-80
2023/12/15 09:04:38;;;;;;;11.88;5.55;;;6.00;99.90;;;;;;5020089;28;20022;-81
2023/12/15 09:07:07;;;;;;;9.63;5.35;;;6.00;99.90;;;;;;5024510;28;20057;-82
2023/12/15 09:09:34;;;;;;;12.60;6.07;;;6.00;99.90;;;;;;5022669;28;20101;-81
2023/12/15 09:12:00;;;;;;;10.88;6.28;;;6.00;99.90;;;;;;5019496;28;20026;-81
2023/12/15 09:14:26;;;;;;;12.35;6.50;;;6.10;99.90;;;;;;5024070;28;20026;-81
2023/12/15 09:16:54;;;;;;;10.43;6.07;;;6.20;99.90;;;;;;4999734;28;20034;-81
2023/12/15 09:19:19;;;;;;;7.85;5.15;;;6.10;99.90;;;;;;5002523;28;20050;-81
2023/12/15 09:21:45;;;;;;;10.32;5.40;;;6.10;99.90;;;;;;5034085;28;20068;-81
2023/12/15 09:24:12;;;;;;;10.40;5.32;;;6.20;99.90;;;;;;5010975;28;20026;-81
2023/12/15 09:26:38;;;;;;;7.82;5.18;;;6.20;99.90;;;;;;5015125;28;20119;-81
2023/12/15 09:29:04;;;;;;;8.73;5.18;;;6.20;99.90;;;;;;4995643;28;20061;-81
2023/12/15 09:31:29;;;;;;;11.15;5.32;;;6.20;99.90;;;;;;5013775;28;20029;-81
2023/12/15 09:33:55;;;;;;;8.82;5.00;;;6.30;99.90;;;;;;5012980;28;20490;-81
2023/12/15 09:36:21;;;;;;;9.52;4.72;;;6.30;99.90;;;;;;5014951;28;20087;-81
2023/12/15 09:38:47;;;;;;;8.02;5.22;;;6.30;99.90;;;;;;4999105;28;20036;-81
2023/12/15 09:41:13;;;;;;;5.75;4.35;;;6.30;99.90;;;;;;5015375;28;20356;-81
2023/12/15 09:43:38;;;;;;;8.00;4.47;;;6.30;99.90;;;;;;5015377;28;20109;-81
2023/12/15 09:46:05;;;;;;;7.65;4.38;;;6.30;99.90;;;;;;5015398;28;20063;-81
2023/12/15 09:48:32;;;;;;;7.55;4.07;;;6.30;99.90;;;;;;5010716;28;20441;-81
2023/12/15 09:51:02;;;;;;;7.75;4.03;;;6.20;99.90;;;;;;5010087;28;20108;-81
2023/12/15 09:53:38;;;;;;;7.93;4.35;;;6.20;99.90;;;;;;5012856;28;20045;-81
2023/12/15 09:56:05;;;;;;;7.95;4.72;;;6.30;99.90;;;;;;5031900;28;20513;-81
2023/12/15 09:58:31;;;;;;;7.30;3.78;;;6.30;99.90;;;;;;5011635;28;20034;-80
2023/12/15 10:00:57;;;;;;;6.53;3.90;;;6.30;99.90;;;;;;5014351;28;20413;-80
2023/12/15 10:03:23;;;;;;;6.95;3.60;;;6.30;99.90;;;;;;5002037;28;20125;-80
2023/12/15 10:05:49;;;;;;;9.52;4.35;;;6.40;99.90;;;;;;5017087;28;20025;-81
2023/12/15 10:08:18;;;;;;;7.95;4.75;;;6.40;99.90;;;;;;5027798;28;20026;-81
2023/12/15 10:10:45;;;;;;;8.60;4.90;;;6.40;99.90;;;;;;5027501;28;20037;-81
2023/12/15 10:13:10;;;;;;;7.80;4.13;;;6.50;99.90;;;;;;5006215;28;20037;-81
2023/12/15 10:15:36;;;;;;;6.80;4.20;;;6.40;99.90;;;;;;5029521;28;20026;-81
2023/12/15 10:18:03;;;;;;;6.07;4.18;;;6.50;99.90;;;;;;5002438;28;20021;-80
2023/12/15 10:20:31;;;;;;;8.05;5.28;;;6.50;99.90;;;;;;5018607;28;20026;-81
2023/12/15 10:23:07;;;;;;;8.35;4.88;;;6.50;99.90;;;;;;5012426;28;20038;-81
2023/12/15 10:25:33;;;;;;;10.15;4.95;;;6.50;99.90;;;;;;5024902;28;20021;-81
2023/12/15 10:27:59;;;;;;;7.60;4.38;;;6.50;99.90;;;;;;5017903;28;20100;-82
2023/12/15 10:30:25;;;;;;;6.05;3.95;;;6.50;99.90;;;;;;5001906;28;20037;-82
2023/12/15 10:32:53;;;;;;;8.05;4.95;;;6.50;99.90;;;;;;5028628;28;20026;-82
2023/12/15 10:35:21;;;;;;;8.90;5.03;;;6.60;99.90;;;;;;5017207;28;20087;-82
2023/12/15 10:37:48;;;;;;;11.07;5.40;;;6.60;99.90;;;;;;5023704;28;20061;-81
2023/12/15 10:40:16;;;;;;;8.05;4.68;;;6.60;99.90;;;;;;5011337;28;20077;-82
2023/12/15 10:42:50;;;;;;;9.68;5.00;;;6.60;99.90;;;;;;5023462;28;20018;-82
2023/12/15 10:45:20;;;;;;;9.48;4.82;;;6.60;99.90;;;;;;5028403;28;20022;-82
2023/12/15 10:47:48;;;;;;;8.38;4.80;;;6.60;99.90;;;;;;4989306;28;20026;-82
2023/12/15 10:50:14;;;;;;;8.18;4.90;;;6.60;99.90;;;;;;5018302;28;20030;-82
2023/12/15 10:52:43;;;;;;;7.10;4.70;;;6.70;99.90;;;;;;5021413;28;20026;-82
2023/12/15 10:55:11;;;;;;;8.15;4.70;;;6.60;99.90;;;;;;5018820;28;20038;-82
2023/12/15 10:57:37;;;;;;;8.15;4.63;;;6.70;99.90;;;;;;5008873;28;20036;-81
2023/12/15 11:00:05;;;;;;;8.57;4.55;;;6.70;99.90;;;;;;5022525;28;20117;-81
2023/12/15 11:02:34;;;;;;;7.35;4.35;;;6.70;99.90;;;;;;5011793;28;20073;-82
2023/12/15 11:05:00;;;;;;;9.52;5.15;;;6.70;99.90;;;;;;4984568;28;20418;-81
2023/12/15 11:07:28;;;;;;;7.95;4.40;;;6.70;99.90;;;;;;5013813;28;20029;-81
2023/12/15 11:09:54;;;;;;;9.80;4.38;;;6.70;99.90;;;;;;4999332;28;20029;-82
2023/12/15 11:12:22;;;;;;;8.95;4.25;;;6.80;99.90;;;;;;5012903;28;20037;-83
2023/12/15 11:14:57;;;;;;;7.35;4.53;;;6.80;99.90;;;;;;5010620;28;20053;-82
2023/12/15 11:17:23;;;;;;;9.60;4.47;;;6.80;99.90;;;;;;5009843;28;20033;-82
2023/12/15 11:19:54;;;;;;;5.45;3.72;;;6.80;99.90;;;;;;5008580;28;20026;-81
2023/12/15 11:22:21;;;;;;;9.05;4.47;;;6.80;99.90;;;;;;4981352;28;20034;-81
2023/12/15 11:24:46;;;;;;;5.90;3.60;;;6.80;99.90;;;;;;5013678;28;20467;-82
2023/12/15 11:27:13;;;;;;;6.25;3.70;;;6.80;99.90;;;;;;5019991;28;20033;-82
2023/12/15 11:29:39;;;;;;;6.88;3.55;;;6.80;99.90;;;;;;5022237;28;20021;-82
2023/12/15 11:32:27;;;;;;;8.55;4.32;;;6.90;99.90;;;;;;5024219;28;20030;-82
2023/12/15 11:34:53;;;;;;;9.23;4.38;;;6.90;99.90;;;;;;4999662;28;20036;-83
2023/12/15 11:37:20;;;;;;;7.78;4.43;;;6.90;99.90;;;;;;5006837;28;20021;-82
2023/12/15 11:39:49;;;;;;;6.47;4.43;;;7.00;99.90;;;;;;5012486;28;20034;-82
2023/12/15 11:42:15;;;;;;;6.65;3.95;;;7.00;99.90;;;;;;5023161;28;20025;-82
2023/12/15 11:44:45;;;;;;;8.25;4.55;;;7.10;99.90;;;;;;5009526;28;20080;-82
2023/12/15 11:47:14;;;;;;;8.45;4.32;;;7.10;99.90;;;;;;5022183;28;20037;-82
2023/12/15 11:49:42;;;;;;;7.03;4.38;;;7.20;99.90;;;;;;5007012;28;20390;-82
2023/12/15 11:52:12;;;;;;;6.70;3.72;;;7.20;99.90;;;;;;5020649;28;20058;-82
2023/12/15 11:54:39;;;;;;;6.85;3.78;;;7.20;99.90;;;;;;5021173;28;20029;-82
2023/12/15 11:57:05;;;;;;;6.00;3.65;;;7.20;99.90;;;;;;5019597;28;20044;-82
2023/12/15 11:59:44;;;;;;;7.05;4.13;;;7.20;99.90;;;;;;5016841;28;20130;-82
2023/12/15 12:02:16;;;;;;;6.45;4.03;;;7.20;99.90;;;;;;5010522;28;20093;-83
2023/12/15 12:04:48;;;;;;;7.45;4.00;;;7.20;99.90;;;;;;5011471;28;20050;-82
2023/12/15 12:07:14;;;;;;;5.28;3.63;;;7.20;99.90;;;;;;5014584;28;20372;-83
2023/12/15 12:09:40;;;;;;;6.50;3.67;;;7.20;99.90;;;;;;5038673;28;20089;-81
2023/12/15 12:12:06;;;;;;;5.97;3.63;;;7.20;99.90;;;;;;5017139;28;20478;-82
2023/12/15 12:14:33;;;;;;;5.95;3.35;;;7.20;99.90;;;;;;5024739;28;20037;-83
2023/12/15 12:16:59;;;;;;;5.68;3.08;;;7.20;99.90;;;;;;5023056;28;20371;-83
2023/12/15 12:19:25;;;;;;;5.75;3.28;;;7.20;99.90;;;;;;5000582;28;20114;-82
2023/12/15 12:21:52;;;;;;;6.40;3.53;;;7.20;99.90;;;;;;5022443;28;20077;-83
2023/12/15 12:24:19;;;;;;;8.68;3.83;;;7.20;99.90;;;;;;5021334;28;20065;-82
2023/12/15 12:26:46;;;;;;;6.43;3.60;;;7.30;99.90;;;;;;5022463;28;20038;-81
2023/12/15 12:29:14;;;;;;;6.20;3.25;;;7.30;99.90;;;;;;5016198;28;20018;-82
2023/12/15 12:31:40;;;;;;;6.80;3.65;;;7.20;99.90;;;;;;5003147;28;20054;-83
2023/12/15 12:34:05;;;;;;;4.88;3.05;;;7.30;99.90;;;;;;5022997;28;20030;-81
2023/12/15 12:36:31;;;;;;;7.32;3.55;;;7.30;99.90;;;;;;5023303;28;20140;-81
2023/12/15 12:38:57;;;;;;;5.72;3.50;;;7.30;99.90;;;;;;5017883;28;20037;-81
2023/12/15 12:41:23;;;;;;;5.38;3.28;;;7.30;99.90;;;;;;5028776;28;20081;-81
2023/12/15 12:43:48;;;;;;;4.40;3.00;;;7.30;99.90;;;;;;5024076;28;20015;-81
2023/12/15 12:46:14;;;;;;;5.00;2.90;;;7.40;99.90;;;;;;5027123;28;20033;-81
2023/12/15 12:48:40;;;;;;;5.30;2.75;;;7.30;99.90;;;;;;5013107;28;20050;-81
2023/12/15 12:51:06;;;;;;;7.18;3.22;;;7.30;99.90;;;;;;5026170;28;20053;-81